createdAt,value
2018-05-25T00:00:04.791Z,44
2018-05-25T00:15:05.507Z,45
2018-05-25T00:30:05.333Z,44
2018-05-25T00:45:05.461Z,43
2018-05-25T01:00:04.691Z,43
2018-05-25T01:15:05.375Z,44
2018-05-25T01:30:05.268Z,43
2018-05-25T01:45:05.195Z,43
2018-05-25T02:00:05.048Z,43
2018-05-25T02:15:04.813Z,43
2018-05-25T02:30:04.632Z,42
2018-05-25T02:45:05.337Z,43
2018-05-25T03:00:05.273Z,43
2018-05-25T03:15:04.929Z,43
2018-05-25T03:30:04.953Z,44
2018-05-25T03:45:04.500Z,44
2018-05-25T04:00:05.178Z,45
2018-05-25T04:15:04.697Z,46
2018-05-25T04:30:04.761Z,46
2018-05-25T04:45:04.901Z,46
2018-05-25T05:00:05.093Z,48
2018-05-25T05:15:05.250Z,48
2018-05-25T05:30:05.246Z,48
2018-05-25T05:45:05.225Z,51
2018-05-25T06:00:05.192Z,49
2018-05-25T06:15:05.311Z,50
2018-05-25T06:30:04.461Z,50
2018-05-25T06:45:05.009Z,51
2018-05-25T07:00:05.001Z,54
2018-05-25T07:15:04.458Z,53
2018-05-25T07:30:04.599Z,53
2018-05-25T07:45:04.569Z,52
2018-05-25T08:00:05.094Z,55
2018-05-25T08:15:04.609Z,53
2018-05-25T08:30:05.225Z,53
2018-05-25T08:45:04.742Z,52
2018-05-25T09:00:05.253Z,52
2018-05-25T09:15:05.359Z,56
2018-05-25T09:30:05.086Z,53
2018-05-25T09:45:05.024Z,55
2018-05-25T10:00:04.562Z,58
2018-05-25T10:15:04.973Z,59
2018-05-25T10:30:04.911Z,56
2018-05-25T10:45:04.627Z,54
2018-05-25T11:00:04.618Z,52
2018-05-25T11:15:04.559Z,56
2018-05-25T11:30:04.807Z,55
2018-05-25T11:45:04.913Z,58
2018-05-25T12:00:04.842Z,51
2018-05-25T12:15:04.895Z,60
2018-05-25T12:30:05.053Z,56
2018-05-25T12:45:04.998Z,55
2018-05-25T13:00:04.933Z,54
2018-05-25T13:15:04.395Z,52
2018-05-25T13:30:05.057Z,64
2018-05-25T13:45:05.190Z,57
2018-05-25T14:00:04.925Z,52
2018-05-25T14:15:04.947Z,57
2018-05-25T14:30:04.808Z,62
2018-05-25T14:45:05.275Z,62
2018-05-25T15:00:05.212Z,60
2018-05-25T15:15:04.688Z,57
2018-05-25T15:30:04.367Z,57
2018-05-25T15:45:04.302Z,57
2018-05-25T16:00:05.045Z,55
2018-05-25T16:15:11.062Z,67
2018-05-25T16:30:06.076Z,59
2018-05-25T16:45:05.235Z,59
2018-05-25T17:00:05.282Z,66
2018-05-25T17:15:04.974Z,54
2018-05-25T17:30:04.932Z,55
2018-05-25T17:45:05.022Z,51
2018-05-25T18:00:05.219Z,55
2018-05-25T18:15:04.654Z,63
2018-05-25T18:30:04.562Z,59
2018-05-25T18:45:09.677Z,57
2018-05-25T19:00:05.144Z,57
2018-05-25T19:15:05.334Z,54
2018-05-25T19:30:04.488Z,56
2018-05-25T19:45:05.183Z,55
2018-05-25T20:00:05.188Z,51
2018-05-25T20:15:04.734Z,54
2018-05-25T20:30:04.932Z,53
2018-05-25T20:45:04.396Z,53
2018-05-25T21:00:04.415Z,50
2018-05-25T21:15:05.289Z,49
2018-05-25T21:30:05.562Z,50
2018-05-25T21:45:05.514Z,47
2018-05-25T22:00:05.212Z,53
2018-05-25T22:15:05.681Z,49
2018-05-25T22:30:04.551Z,47
2018-05-25T22:45:04.951Z,48
2018-05-25T23:00:04.612Z,46
2018-05-25T23:15:05.322Z,45
2018-05-25T23:30:05.085Z,46
2018-05-25T23:45:05.239Z,45
